createdAt,value
2022-07-29T00:00:19.995Z,66
2022-07-29T00:01:24.779Z,66
2022-07-29T00:02:30.127Z,66
2022-07-29T00:03:40.235Z,66
2022-07-29T00:04:44.857Z,66
2022-07-29T00:05:49.356Z,66
2022-07-29T00:06:54.547Z,66
2022-07-29T00:07:59.258Z,66
2022-07-29T00:09:04.211Z,66
2022-07-29T00:10:09.664Z,67
2022-07-29T00:11:14.715Z,67
2022-07-29T00:12:21.552Z,67
2022-07-29T00:13:31.860Z,67
2022-07-29T00:14:30.504Z,67
2022-07-29T00:15:36.156Z,67
2022-07-29T00:16:42.027Z,67
2022-07-29T00:17:46.709Z,67
2022-07-29T00:18:51.555Z,67
2022-07-29T00:19:56.919Z,67
2022-07-29T00:21:02.599Z,67
2022-07-29T00:22:07.694Z,67
2022-07-29T00:23:13.995Z,67
2022-07-29T00:24:20.142Z,67
2022-07-29T00:25:25.276Z,66
2022-07-29T00:26:30.076Z,66
2022-07-29T00:27:35.211Z,67
2022-07-29T00:28:40.362Z,67
2022-07-29T00:29:46.914Z,67
2022-07-29T00:30:52.319Z,66
2022-07-29T00:32:00.637Z,67
2022-07-29T00:33:08.988Z,67
2022-07-29T00:34:09.703Z,67
2022-07-29T00:35:19.662Z,67
2022-07-29T00:36:30.127Z,67
2022-07-29T00:37:35.198Z,67
2022-07-29T00:38:40.155Z,67
2022-07-29T00:39:45.618Z,67
2022-07-29T00:40:50.775Z,67
2022-07-29T00:41:57.610Z,67
2022-07-29T00:43:01.995Z,67
2022-07-29T00:44:07.019Z,67
2022-07-29T00:45:11.755Z,67
2022-07-29T00:46:16.337Z,67
2022-07-29T00:47:21.034Z,68
2022-07-29T00:48:25.715Z,68
2022-07-29T00:49:30.538Z,68
2022-07-29T00:50:41.315Z,68
2022-07-29T00:51:46.801Z,68
2022-07-29T00:52:51.827Z,68
2022-07-29T00:53:56.726Z,68
2022-07-29T00:55:06.463Z,68
2022-07-29T00:56:12.011Z,68
2022-07-29T00:57:16.678Z,68
2022-07-29T00:58:22.596Z,68
2022-07-29T00:59:34.510Z,68
2022-07-29T01:00:35.228Z,68
2022-07-29T01:01:40.205Z,68
2022-07-29T01:02:48.662Z,68
2022-07-29T01:03:58.606Z,68
2022-07-29T01:05:03.371Z,68
2022-07-29T01:06:08.791Z,68
2022-07-29T01:07:13.607Z,68
2022-07-29T01:08:18.242Z,68
2022-07-29T01:09:34.968Z,67
2022-07-29T01:10:42.907Z,68
2022-07-29T01:11:49.278Z,68
2022-07-29T01:12:54.814Z,68
2022-07-29T01:13:59.591Z,68
2022-07-29T01:15:04.970Z,68
2022-07-29T01:16:10.919Z,68
2022-07-29T01:17:16.554Z,68
2022-07-29T01:18:26.298Z,68
2022-07-29T01:19:33.514Z,68
2022-07-29T01:20:43.838Z,67
2022-07-29T01:21:56.726Z,67
2022-07-29T01:23:01.523Z,67
2022-07-29T01:24:08.902Z,67
2022-07-29T01:25:14.052Z,67
2022-07-29T01:26:22.659Z,67
2022-07-29T01:27:30.707Z,67
2022-07-29T01:28:40.454Z,67
2022-07-29T01:29:53.527Z,67
2022-07-29T01:30:58.383Z,67
2022-07-29T01:32:03.006Z,67
2022-07-29T01:33:07.541Z,67
2022-07-29T01:34:12.435Z,67
2022-07-29T01:35:20.289Z,67
2022-07-29T01:36:31.429Z,67
2022-07-29T01:37:48.081Z,67
2022-07-29T01:39:03.307Z,67
2022-07-29T01:40:14.842Z,67
2022-07-29T01:41:22.535Z,67
2022-07-29T01:42:27.947Z,67
2022-07-29T01:43:32.454Z,67
2022-07-29T01:44:43.994Z,67
2022-07-29T01:45:56.802Z,68
2022-07-29T01:47:01.928Z,67
2022-07-29T01:48:09.798Z,67
2022-07-29T01:49:17.357Z,67
2022-07-29T01:50:28.097Z,68
2022-07-29T01:51:36.654Z,67
2022-07-29T01:52:47.123Z,68
2022-07-29T01:53:52.157Z,67
2022-07-29T01:55:06.289Z,68
2022-07-29T01:56:15.913Z,68
2022-07-29T01:57:20.798Z,68
2022-07-29T01:58:25.209Z,68
2022-07-29T01:59:30.084Z,67
2022-07-29T02:00:36.100Z,67
2022-07-29T02:01:41.548Z,67
2022-07-29T02:02:46.146Z,67
2022-07-29T02:03:51.102Z,67
2022-07-29T02:04:55.717Z,68
2022-07-29T02:06:01.635Z,67
2022-07-29T02:07:09.758Z,68
2022-07-29T02:08:14.533Z,68
2022-07-29T02:09:19.331Z,67
2022-07-29T02:10:25.743Z,67
2022-07-29T02:11:29.603Z,67
2022-07-29T02:12:34.294Z,67
2022-07-29T02:13:39.046Z,67
2022-07-29T02:14:48.609Z,67
2022-07-29T02:15:53.830Z,67
2022-07-29T02:16:59.442Z,67
2022-07-29T02:18:04.581Z,67
2022-07-29T02:19:09.122Z,67
2022-07-29T02:20:14.942Z,66
2022-07-29T02:21:19.978Z,66
2022-07-29T02:22:27.827Z,66
2022-07-29T02:23:32.845Z,66
2022-07-29T02:24:38.834Z,66
2022-07-29T02:25:43.742Z,66
2022-07-29T02:26:51.707Z,66
2022-07-29T02:27:56.757Z,66
2022-07-29T02:29:01.563Z,66
2022-07-29T02:30:06.074Z,66
2022-07-29T02:31:11.025Z,66
2022-07-29T02:32:15.434Z,66
2022-07-29T02:33:20.538Z,66
2022-07-29T02:34:27.602Z,65
2022-07-29T02:35:34.791Z,65
2022-07-29T02:36:37.774Z,65
2022-07-29T02:37:43.393Z,66
2022-07-29T02:38:48.507Z,66
2022-07-29T02:39:53.686Z,65
2022-07-29T02:40:58.310Z,66
2022-07-29T02:42:06.006Z,66
2022-07-29T02:43:10.894Z,65
2022-07-29T02:44:17.718Z,65
2022-07-29T02:45:21.897Z,65
2022-07-29T02:46:28.650Z,66
2022-07-29T02:47:31.653Z,65
2022-07-29T02:48:43.766Z,66
2022-07-29T02:49:51.322Z,66
2022-07-29T02:51:00.291Z,66
2022-07-29T02:52:07.690Z,66
2022-07-29T02:53:18.349Z,66
2022-07-29T02:54:23.133Z,66
2022-07-29T02:55:33.061Z,65
2022-07-29T02:56:42.553Z,65
2022-07-29T02:57:55.243Z,65
2022-07-29T02:59:00.877Z,65
2022-07-29T03:00:06.356Z,65
2022-07-29T03:01:12.420Z,65
2022-07-29T03:02:18.488Z,65
2022-07-29T03:03:23.331Z,65
2022-07-29T03:04:29.653Z,65
2022-07-29T03:05:34.572Z,65
2022-07-29T03:06:39.730Z,65
2022-07-29T03:07:44.189Z,66
2022-07-29T03:08:48.919Z,66
2022-07-29T03:09:54.415Z,65
2022-07-29T03:10:59.328Z,65
2022-07-29T03:12:04.132Z,66
2022-07-29T03:13:08.596Z,65
2022-07-29T03:14:13.018Z,65
2022-07-29T03:15:17.171Z,65
2022-07-29T03:16:21.961Z,65
2022-07-29T03:17:26.821Z,65
2022-07-29T03:18:31.479Z,65
2022-07-29T03:19:36.143Z,65
2022-07-29T03:20:40.916Z,65
2022-07-29T03:21:45.692Z,65
2022-07-29T03:22:51.114Z,65
2022-07-29T03:23:55.753Z,65
2022-07-29T03:25:01.732Z,64
2022-07-29T03:26:09.519Z,65
2022-07-29T03:27:15.774Z,65
2022-07-29T03:28:21.591Z,65
2022-07-29T03:29:26.963Z,64
2022-07-29T03:30:32.177Z,65
2022-07-29T03:31:36.733Z,65
2022-07-29T03:32:41.163Z,65
2022-07-29T03:33:46.939Z,65
2022-07-29T03:34:51.863Z,65
2022-07-29T03:35:56.694Z,65
2022-07-29T03:37:01.721Z,65
2022-07-29T03:38:06.962Z,65
2022-07-29T03:39:11.498Z,65
2022-07-29T03:40:16.958Z,65
2022-07-29T03:41:35.079Z,64
2022-07-29T03:42:40.300Z,64
2022-07-29T03:43:48.957Z,64
2022-07-29T03:44:50.699Z,64
2022-07-29T03:45:56.242Z,64
2022-07-29T03:47:01.386Z,64
2022-07-29T03:48:06.041Z,64
2022-07-29T03:49:10.438Z,64
2022-07-29T03:50:14.847Z,64
2022-07-29T03:51:31.600Z,64
2022-07-29T03:52:25.507Z,64
2022-07-29T03:53:30.270Z,64
2022-07-29T03:54:35.370Z,64
2022-07-29T03:55:40.882Z,63
2022-07-29T03:56:45.942Z,63
2022-07-29T03:57:51.338Z,63
2022-07-29T03:58:56.303Z,63
2022-07-29T04:00:02.566Z,63
2022-07-29T04:01:07.983Z,63
2022-07-29T04:02:14.770Z,63
2022-07-29T04:03:20.083Z,64
2022-07-29T04:04:24.851Z,64
2022-07-29T04:05:29.174Z,64
2022-07-29T04:06:34.003Z,64
2022-07-29T04:07:41.438Z,64
2022-07-29T04:08:46.263Z,64
2022-07-29T04:09:51.471Z,64
2022-07-29T04:10:56.023Z,64
2022-07-29T04:12:02.737Z,64
2022-07-29T04:13:05.707Z,64
2022-07-29T04:14:09.926Z,64
2022-07-29T04:15:19.198Z,64
2022-07-29T04:16:24.614Z,64
2022-07-29T04:17:30.117Z,64
2022-07-29T04:18:35.342Z,64
2022-07-29T04:19:39.956Z,64
2022-07-29T04:20:44.755Z,64
2022-07-29T04:21:49.544Z,64
2022-07-29T04:22:54.368Z,64
2022-07-29T04:23:58.793Z,64
2022-07-29T04:25:04.345Z,64
2022-07-29T04:26:09.140Z,64
2022-07-29T04:27:14.167Z,64
2022-07-29T04:28:18.892Z,64
2022-07-29T04:29:28.083Z,64
2022-07-29T04:30:32.796Z,64
2022-07-29T04:31:37.782Z,64
2022-07-29T04:32:44.164Z,64
2022-07-29T04:33:53.532Z,64
2022-07-29T04:34:58.508Z,64
2022-07-29T04:36:02.976Z,64
2022-07-29T04:37:08.596Z,64
2022-07-29T04:38:15.514Z,64
2022-07-29T04:39:22.595Z,64
2022-07-29T04:40:23.368Z,64
2022-07-29T04:41:32.936Z,64
2022-07-29T04:42:34.080Z,64
2022-07-29T04:43:38.688Z,64
2022-07-29T04:44:43.400Z,64
2022-07-29T04:45:48.987Z,64
2022-07-29T04:46:53.739Z,64
2022-07-29T04:47:58.288Z,64
2022-07-29T04:49:02.796Z,64
2022-07-29T04:50:07.476Z,64
2022-07-29T04:51:13.023Z,64
2022-07-29T04:52:17.825Z,64
2022-07-29T04:53:22.240Z,64
2022-07-29T04:54:28.499Z,64
2022-07-29T04:55:33.856Z,63
2022-07-29T04:56:39.020Z,63
2022-07-29T04:57:43.964Z,63
2022-07-29T04:58:49.559Z,63
2022-07-29T04:59:56.229Z,63
2022-07-29T05:01:01.637Z,64
2022-07-29T05:02:06.472Z,64
2022-07-29T05:03:11.601Z,64
2022-07-29T05:04:16.683Z,63
2022-07-29T05:05:21.161Z,64
2022-07-29T05:06:26.500Z,64
2022-07-29T05:07:31.823Z,64
2022-07-29T05:08:36.263Z,64
2022-07-29T05:09:40.684Z,64
2022-07-29T05:10:45.084Z,64
2022-07-29T05:11:49.599Z,63
2022-07-29T05:12:54.245Z,63
2022-07-29T05:13:59.363Z,63
2022-07-29T05:15:04.691Z,63
2022-07-29T05:16:09.612Z,63
2022-07-29T05:17:13.741Z,63
2022-07-29T05:18:18.609Z,63
2022-07-29T05:19:23.568Z,63
2022-07-29T05:20:28.892Z,63
2022-07-29T05:21:33.877Z,62
2022-07-29T05:22:38.883Z,63
2022-07-29T05:23:44.066Z,63
2022-07-29T05:24:48.956Z,63
2022-07-29T05:25:54.360Z,63
2022-07-29T05:26:59.964Z,63
2022-07-29T05:28:04.488Z,63
2022-07-29T05:29:43.593Z,62
2022-07-29T05:30:14.667Z,63
2022-07-29T05:31:20.018Z,63
2022-07-29T05:32:29.424Z,63
2022-07-29T05:33:36.972Z,63
2022-07-29T05:34:50.041Z,63
2022-07-29T05:35:44.588Z,63
2022-07-29T05:36:49.543Z,63
2022-07-29T05:37:54.491Z,63
2022-07-29T05:38:59.669Z,63
2022-07-29T05:40:04.960Z,62
2022-07-29T05:41:09.444Z,62
2022-07-29T05:42:14.060Z,62
2022-07-29T05:43:19.204Z,63
2022-07-29T05:44:25.236Z,63
2022-07-29T05:45:29.187Z,63
2022-07-29T05:46:33.800Z,63
2022-07-29T05:47:38.896Z,62
2022-07-29T05:48:44.055Z,63
2022-07-29T05:49:49.227Z,62
2022-07-29T05:50:53.684Z,62
2022-07-29T05:52:02.731Z,62
2022-07-29T05:53:18.750Z,62
2022-07-29T05:54:14.429Z,62
2022-07-29T05:55:19.448Z,62
2022-07-29T05:56:24.492Z,62
2022-07-29T05:57:29.051Z,62
2022-07-29T05:58:34.056Z,62
2022-07-29T06:00:43.940Z,62
2022-07-29T06:01:48.723Z,62
2022-07-29T06:02:53.848Z,62
2022-07-29T06:03:59.559Z,62
2022-07-29T06:05:04.089Z,62
2022-07-29T06:06:08.767Z,62
2022-07-29T06:07:13.136Z,62
2022-07-29T06:08:18.225Z,62
2022-07-29T06:09:23.884Z,62
2022-07-29T06:10:29.853Z,62
2022-07-29T06:11:34.608Z,62
2022-07-29T06:12:40.607Z,62
2022-07-29T06:13:45.541Z,62
2022-07-29T06:14:54.019Z,62
2022-07-29T06:15:55.623Z,62
2022-07-29T06:16:59.909Z,63
2022-07-29T06:18:05.003Z,63
2022-07-29T06:19:09.759Z,62
2022-07-29T06:20:15.272Z,62
2022-07-29T06:21:18.903Z,62
2022-07-29T06:22:24.444Z,62
2022-07-29T06:23:28.960Z,61
2022-07-29T06:24:34.513Z,61
2022-07-29T06:25:39.185Z,61
2022-07-29T06:26:43.924Z,60
2022-07-29T06:27:50.443Z,60
2022-07-29T06:28:55.668Z,60
2022-07-29T06:30:00.719Z,60
2022-07-29T06:31:07.343Z,61
2022-07-29T06:32:12.005Z,61
2022-07-29T06:33:17.335Z,61
2022-07-29T06:35:38.083Z,61
2022-07-29T06:36:31.164Z,60
2022-07-29T06:37:37.120Z,60
2022-07-29T06:38:47.617Z,60
2022-07-29T06:39:46.776Z,60
2022-07-29T06:40:51.352Z,60
2022-07-29T06:42:01.327Z,60
2022-07-29T06:43:05.981Z,60
2022-07-29T06:44:11.291Z,60
2022-07-29T06:45:15.915Z,60
2022-07-29T06:46:21.461Z,61
2022-07-29T06:47:26.739Z,61
2022-07-29T06:48:32.353Z,60
2022-07-29T06:49:37.347Z,60
2022-07-29T06:50:43.130Z,60
2022-07-29T09:13:01.274Z,55
2022-07-29T09:14:08.794Z,55
2022-07-29T09:15:16.270Z,54
2022-07-29T09:16:44.002Z,55
2022-07-29T09:17:30.466Z,54
2022-07-29T09:18:45.166Z,55
2022-07-29T09:19:49.950Z,55
2022-07-29T09:20:54.387Z,55
2022-07-29T09:22:04.262Z,55
2022-07-29T09:23:08.571Z,55
2022-07-29T09:24:13.439Z,55
2022-07-29T09:25:17.982Z,55
2022-07-29T09:26:32.654Z,55
2022-07-29T09:27:37.026Z,54
2022-07-29T09:28:43.034Z,54
2022-07-29T09:29:48.543Z,49
2022-07-29T09:30:58.534Z,49
2022-07-29T09:32:03.231Z,49
2022-07-29T09:33:08.645Z,50
2022-07-29T09:34:14.798Z,50
2022-07-29T09:35:24.135Z,50
2022-07-29T09:36:28.648Z,50
2022-07-29T09:37:33.760Z,50
2022-07-29T09:38:38.399Z,50
2022-07-29T09:39:43.915Z,50
2022-07-29T09:40:49.002Z,50
2022-07-29T09:41:58.657Z,50
2022-07-29T09:43:04.102Z,49
2022-07-29T09:44:15.975Z,50
2022-07-29T09:45:22.146Z,50
2022-07-29T09:46:36.193Z,49
2022-07-29T09:47:46.587Z,49
2022-07-29T09:48:54.598Z,48
2022-07-29T09:50:10.097Z,48
2022-07-29T09:51:19.895Z,48
2022-07-29T09:52:21.971Z,48
2022-07-29T09:53:27.699Z,47
2022-07-29T09:55:42.976Z,47
2022-07-29T09:56:54.141Z,46
2022-07-29T09:57:59.255Z,47
2022-07-29T09:59:14.770Z,47
2022-07-29T10:00:23.127Z,48
2022-07-29T10:01:29.045Z,48
2022-07-29T10:02:37.626Z,47
2022-07-29T10:03:47.441Z,47
2022-07-29T10:05:01.142Z,47
2022-07-29T10:06:09.626Z,46
2022-07-29T10:07:14.468Z,47
2022-07-29T10:08:18.911Z,46
2022-07-29T10:09:26.029Z,47
2022-07-29T10:10:30.702Z,47
2022-07-29T10:11:48.379Z,47
2022-07-29T10:12:44.672Z,47
2022-07-29T10:14:04.734Z,47
2022-07-29T10:15:11.300Z,47
2022-07-29T10:16:16.457Z,47
2022-07-29T10:17:22.934Z,47
2022-07-29T10:18:32.055Z,47
2022-07-29T10:19:37.856Z,47
2022-07-29T10:20:46.842Z,46
2022-07-29T10:21:56.243Z,46
2022-07-29T10:22:57.379Z,45
2022-07-29T10:24:02.631Z,45
2022-07-29T10:25:08.059Z,46
2022-07-29T10:26:12.640Z,45
2022-07-29T10:27:17.739Z,45
2022-07-29T10:28:22.859Z,45
2022-07-29T10:29:27.844Z,45
2022-07-29T10:30:32.561Z,44
2022-07-29T10:31:38.080Z,44
2022-07-29T10:32:49.197Z,44
2022-07-29T10:34:02.033Z,44
2022-07-29T10:35:08.442Z,44
2022-07-29T10:36:25.152Z,44
2022-07-29T10:37:45.765Z,44
2022-07-29T10:38:55.830Z,44
2022-07-29T10:40:05.550Z,44
2022-07-29T10:41:13.418Z,44
2022-07-29T10:42:29.974Z,45
2022-07-29T10:44:36.867Z,45
2022-07-29T10:45:43.346Z,45
2022-07-29T10:46:48.290Z,45
2022-07-29T10:47:52.856Z,45
2022-07-29T10:49:05.663Z,45
2022-07-29T10:50:15.308Z,46
2022-07-29T10:51:15.995Z,46
2022-07-29T10:52:20.733Z,45
2022-07-29T10:53:27.035Z,45
2022-07-29T10:54:43.936Z,45
2022-07-29T10:55:49.914Z,45
2022-07-29T10:56:56.271Z,46
2022-07-29T10:58:02.087Z,46
2022-07-29T10:59:17.260Z,46
2022-07-29T11:00:22.775Z,46
2022-07-29T11:01:36.945Z,46
2022-07-29T11:02:37.143Z,45
2022-07-29T11:03:40.496Z,46
2022-07-29T11:04:48.541Z,46
2022-07-29T13:08:20.037Z,45
2022-07-29T13:12:05.105Z,45
2022-07-29T13:14:21.801Z,44
2022-07-29T13:20:35.800Z,44
2022-07-29T13:27:49.536Z,44
2022-07-29T13:31:07.347Z,44
2022-07-29T13:32:19.250Z,44
2022-07-29T13:37:19.739Z,44
2022-07-29T13:42:48.952Z,44
2022-07-29T13:48:27.983Z,43
2022-07-29T13:50:52.544Z,43
2022-07-29T13:52:47.528Z,43
2022-07-29T13:53:52.636Z,43
2022-07-29T13:55:01.116Z,43
2022-07-29T13:56:25.496Z,43
2022-07-29T13:57:31.047Z,43
2022-07-29T13:58:37.162Z,43
2022-07-29T13:59:42.456Z,43
2022-07-29T14:00:47.703Z,43
2022-07-29T14:01:56.016Z,43
2022-07-29T14:03:00.339Z,43
2022-07-29T14:04:08.576Z,43
2022-07-29T14:05:13.149Z,43
2022-07-29T14:06:18.856Z,43
2022-07-29T14:07:23.645Z,42
2022-07-29T14:08:31.870Z,42
2022-07-29T14:11:01.875Z,42
2022-07-29T14:12:53.635Z,42
2022-07-29T14:14:14.120Z,42
2022-07-29T14:15:49.912Z,42
2022-07-29T14:17:18.246Z,42
2022-07-29T14:21:05.604Z,42
2022-07-29T14:22:28.436Z,42
2022-07-29T14:23:50.789Z,42
2022-07-29T14:24:58.799Z,42
2022-07-29T14:26:18.244Z,42
2022-07-29T14:27:35.007Z,42
2022-07-29T14:28:37.919Z,42
2022-07-29T14:29:42.925Z,42
2022-07-29T14:30:53.067Z,43
2022-07-29T14:31:58.735Z,42
2022-07-29T14:33:04.076Z,42
2022-07-29T14:34:16.718Z,42
2022-07-29T14:35:22.877Z,42
2022-07-29T15:30:03.104Z,44
2022-07-29T15:31:33.190Z,43
2022-07-29T15:41:08.839Z,44
2022-07-29T15:43:32.871Z,43
2022-07-29T15:55:16.386Z,44
2022-07-29T15:56:21.863Z,44
2022-07-29T15:57:26.438Z,45
2022-07-29T15:58:32.400Z,45
2022-07-29T15:59:37.018Z,45
2022-07-29T16:00:42.541Z,45
2022-07-29T16:04:59.315Z,46
2022-07-29T16:06:10.823Z,46
2022-07-29T16:08:20.483Z,46
2022-07-29T17:14:04.098Z,71
2022-07-29T17:16:08.181Z,72
2022-07-29T17:29:30.997Z,75
2022-07-29T17:38:10.230Z,76
2022-07-29T17:49:32.663Z,76
2022-07-29T17:51:19.270Z,76
2022-07-29T17:54:56.186Z,77
2022-07-29T17:56:15.258Z,78
2022-07-29T17:57:20.006Z,79
2022-07-29T17:59:22.197Z,80
2022-07-29T19:03:41.592Z,82
2022-07-29T19:05:27.293Z,81
2022-07-29T19:06:39.456Z,81
2022-07-29T19:07:45.580Z,82
2022-07-29T19:09:00.480Z,82
2022-07-29T19:10:06.298Z,82
2022-07-29T19:14:11.762Z,83
2022-07-29T19:16:42.782Z,84
2022-07-29T19:17:54.743Z,84
2022-07-29T19:19:00.449Z,84
2022-07-29T19:20:05.700Z,84
2022-07-29T19:21:10.793Z,84
2022-07-29T19:22:16.542Z,85
2022-07-29T19:23:22.345Z,85
2022-07-29T19:25:54.238Z,85
2022-07-29T19:27:09.281Z,85
2022-07-29T19:28:13.613Z,85
2022-07-29T19:29:27.433Z,84
2022-07-29T19:31:04.367Z,84
2022-07-29T19:32:09.913Z,84
2022-07-29T19:33:17.805Z,84
2022-07-29T19:34:24.053Z,84
2022-07-29T19:38:49.512Z,85
2022-07-29T19:40:35.225Z,85
2022-07-29T19:42:23.041Z,86
2022-07-29T21:57:29.613Z,87
2022-07-29T22:00:03.409Z,87
2022-07-29T22:02:17.841Z,87
2022-07-29T22:08:33.292Z,87
2022-07-29T22:11:04.201Z,87
2022-07-29T22:18:21.162Z,87
2022-07-29T22:21:40.166Z,86
2022-07-29T22:23:00.535Z,87
2022-07-29T22:32:02.405Z,87
2022-07-29T22:33:40.673Z,87
2022-07-29T22:34:53.320Z,87
2022-07-29T22:36:04.456Z,87
2022-07-29T22:39:23.221Z,87
2022-07-29T22:44:31.200Z,87
2022-07-29T22:46:25.683Z,87
2022-07-29T22:55:38.247Z,88
2022-07-29T22:58:43.975Z,87
2022-07-29T23:08:32.816Z,87
2022-07-29T23:10:27.955Z,87
2022-07-29T23:13:20.747Z,87
2022-07-29T23:14:34.688Z,87
2022-07-29T23:16:33.649Z,87
2022-07-29T23:18:02.432Z,87
2022-07-29T23:19:23.063Z,87
2022-07-29T23:21:59.556Z,87
2022-07-29T23:23:42.851Z,87
2022-07-29T23:24:48.149Z,87
2022-07-29T23:26:03.145Z,87
2022-07-29T23:28:11.611Z,87
2022-07-29T23:32:04.263Z,87
2022-07-29T23:33:13.621Z,87
2022-07-29T23:38:43.437Z,86
2022-07-29T23:40:45.519Z,86
2022-07-29T23:42:55.643Z,86
2022-07-29T23:44:52.588Z,86
2022-07-29T23:46:04.513Z,86
2022-07-29T23:47:25.764Z,86
2022-07-29T23:48:30.547Z,86
2022-07-29T23:49:36.791Z,86
2022-07-29T23:57:22.869Z,86
